Terminal Aerodrome Forecast
Issued by NWS St Louis, MO

Home | Current Version | Previous Version | Text Only | Print | Product List | Glossary On
Versions: 1 2 3 4 5 6 7 8 9 10 11 12 13 14 15 16 17 18 19 20 21 22 23 24 25 26 27 28 29
000
FTUS43 KLSX 231251 AAA
TAFCOU
TAF AMD
KCOU 231251Z 2313/2412 06004KT 6SM BR BKN005
     FM231500 07007KT 6SM BR BKN012
     FM231700 07007KT P6SM SCT010 OVC250
     FM232200 11011KT P6SM BKN060
     FM240200 17011G17KT P6SM BKN200=

USA.gov is the U.S. government's official web portal to all federal, state and local government web resources and services.